createdAt,value
2017-10-31T00:00:50.330Z,100608.40
2017-10-31T00:03:16.673Z,100611.00
2017-10-31T00:05:42.975Z,100606.41
2017-10-31T00:08:09.281Z,100604.52
2017-10-31T00:10:35.647Z,100603.80
2017-10-31T00:13:01.939Z,100603.74
2017-10-31T00:15:28.216Z,100613.77
2017-10-31T00:17:54.549Z,100612.46
2017-10-31T00:20:21.833Z,100619.50
2017-10-31T00:22:48.917Z,100624.88
2017-10-31T00:25:15.257Z,100622.56
2017-10-31T00:27:41.616Z,100629.70
2017-10-31T00:30:07.916Z,100629.34
2017-10-31T00:32:34.295Z,100625.59
2017-10-31T00:35:01.383Z,100631.23
2017-10-31T00:37:27.697Z,100630.49
2017-10-31T00:39:54.054Z,100625.81
2017-10-31T00:42:20.406Z,100630.09
2017-10-31T00:44:46.772Z,100634.75
2017-10-31T00:47:13.907Z,100622.66
2017-10-31T00:49:40.190Z,100624.16
2017-10-31T00:52:06.550Z,100626.83
2017-10-31T00:54:32.906Z,100618.77
2017-10-31T00:56:59.429Z,100622.56
2017-10-31T00:59:25.869Z,100625.00
2017-10-31T01:01:52.291Z,100628.92
2017-10-31T01:04:18.753Z,100620.48
2017-10-31T01:06:45.891Z,100624.68
2017-10-31T01:09:12.956Z,100627.16
2017-10-31T01:11:40.095Z,100620.52
2017-10-31T01:14:07.144Z,100628.20
2017-10-31T01:16:33.555Z,100621.10
2017-10-31T01:19:00.667Z,100632.53
2017-10-31T01:21:26.973Z,100637.70
2017-10-31T01:23:54.013Z,100616.37
2017-10-31T01:26:22.569Z,100607.23
2017-10-31T01:28:48.916Z,100607.95
2017-10-31T01:31:16.440Z,100610.46
2017-10-31T01:33:42.989Z,100601.08
2017-10-31T01:36:10.211Z,100605.09
2017-10-31T01:38:36.577Z,100606.05
2017-10-31T01:41:02.898Z,100607.77
2017-10-31T01:43:29.758Z,100595.94
2017-10-31T01:45:56.335Z,100595.26
2017-10-31T01:48:22.653Z,100608.34
2017-10-31T01:50:48.977Z,100601.97
2017-10-31T01:53:16.096Z,100602.39
2017-10-31T01:55:42.476Z,100599.98
2017-10-31T01:58:08.878Z,100602.89
2017-10-31T02:00:35.296Z,100610.02
2017-10-31T02:03:01.695Z,100609.81
2017-10-31T02:05:28.065Z,100616.92
2017-10-31T02:07:54.371Z,100609.83
2017-10-31T02:10:20.744Z,100607.35
2017-10-31T02:12:47.220Z,100610.77
2017-10-31T02:15:13.540Z,100620.70
2017-10-31T02:17:39.938Z,100617.73
2017-10-31T02:20:06.422Z,100611.46
2017-10-31T02:22:32.738Z,100606.12
2017-10-31T02:24:59.175Z,100602.70
2017-10-31T02:27:25.535Z,100606.16
2017-10-31T02:29:51.920Z,100607.93
2017-10-31T02:32:19.118Z,100605.48
2017-10-31T02:34:45.433Z,100608.11
2017-10-31T02:37:11.843Z,100610.62
2017-10-31T02:39:38.946Z,100613.94
2017-10-31T02:42:05.365Z,100622.06
2017-10-31T02:44:31.717Z,100613.77
2017-10-31T02:46:59.698Z,100622.66
2017-10-31T02:49:26.798Z,100610.40
2017-10-31T02:51:53.123Z,100608.12
2017-10-31T02:54:19.462Z,100616.61
2017-10-31T02:56:45.816Z,100607.31
2017-10-31T02:59:12.197Z,100600.52
2017-10-31T03:01:39.241Z,100614.09
2017-10-31T03:04:06.329Z,100622.59
2017-10-31T03:06:32.656Z,100616.09
2017-10-31T03:08:59.026Z,100610.01
2017-10-31T03:11:25.412Z,100613.86
2017-10-31T03:13:52.544Z,100616.80
2017-10-31T03:16:19.593Z,100619.12
2017-10-31T03:18:46.972Z,100620.21
2017-10-31T03:21:13.305Z,100624.52
2017-10-31T03:23:39.678Z,100622.28
2017-10-31T03:26:06.000Z,100627.75
2017-10-31T03:28:32.390Z,100627.88
2017-10-31T03:30:58.874Z,100622.88
2017-10-31T03:33:25.472Z,100620.45
2017-10-31T03:35:51.997Z,100619.98
2017-10-31T03:38:18.320Z,100621.95
2017-10-31T03:40:44.706Z,100618.34
2017-10-31T03:43:11.069Z,100623.13
2017-10-31T03:45:38.243Z,100621.92
2017-10-31T03:48:04.807Z,100625.38
2017-10-31T03:50:31.136Z,100629.19
2017-10-31T03:52:57.542Z,100619.64
2017-10-31T03:55:23.847Z,100622.53
2017-10-31T03:57:50.921Z,100620.37
2017-10-31T04:00:17.286Z,100614.42
2017-10-31T04:02:43.573Z,100620.69
2017-10-31T04:05:09.888Z,100618.40
2017-10-31T04:07:36.954Z,100616.67
2017-10-31T04:10:03.256Z,100618.69
2017-10-31T04:12:29.616Z,100619.64
2017-10-31T04:14:55.886Z,100620.08
2017-10-31T04:17:22.277Z,100620.48
2017-10-31T04:19:49.398Z,100605.39
2017-10-31T04:22:15.768Z,100615.72
2017-10-31T04:24:42.190Z,100619.89
2017-10-31T04:27:08.528Z,100615.57
2017-10-31T04:29:35.625Z,100612.30
2017-10-31T04:32:01.977Z,100608.38
2017-10-31T04:34:28.342Z,100608.31
2017-10-31T04:36:54.787Z,100618.59
2017-10-31T04:39:21.113Z,100612.39
2017-10-31T04:41:47.484Z,100605.47
2017-10-31T04:44:13.802Z,100604.35
2017-10-31T04:46:40.139Z,100610.59
2017-10-31T04:49:06.491Z,100610.70
2017-10-31T04:51:32.845Z,100610.56
2017-10-31T04:54:00.191Z,100624.93
2017-10-31T04:56:26.640Z,100622.20
2017-10-31T04:58:53.704Z,100614.17
2017-10-31T05:01:20.005Z,100622.34
2017-10-31T05:03:46.336Z,100620.95
2017-10-31T05:06:13.461Z,100633.71
2017-10-31T05:08:39.769Z,100615.33
2017-10-31T05:11:06.159Z,100613.75
2017-10-31T05:13:33.396Z,100608.53
2017-10-31T05:15:59.856Z,100609.55
2017-10-31T05:18:26.974Z,100610.16
2017-10-31T05:20:53.413Z,100616.00
2017-10-31T05:23:19.862Z,100631.71
2017-10-31T05:25:47.052Z,100616.84
2017-10-31T05:28:13.385Z,100624.17
2017-10-31T05:30:39.713Z,100618.65
2017-10-31T05:33:06.059Z,100618.51
2017-10-31T05:35:32.577Z,100615.30
2017-10-31T05:37:58.883Z,100619.42
2017-10-31T05:40:26.107Z,100629.12
2017-10-31T05:42:52.471Z,100632.80
2017-10-31T05:45:19.583Z,100636.36
2017-10-31T05:47:45.895Z,100640.87
2017-10-31T05:50:13.143Z,100640.20
2017-10-31T05:52:39.478Z,100635.55
2017-10-31T05:55:05.883Z,100633.39
2017-10-31T05:57:32.264Z,100637.83
2017-10-31T05:59:58.842Z,100641.92
2017-10-31T06:02:26.021Z,100646.83
2017-10-31T06:04:52.365Z,100646.05
2017-10-31T06:07:18.823Z,100650.22
2017-10-31T06:09:45.892Z,100650.75
2017-10-31T06:12:12.987Z,100655.19
2017-10-31T06:14:39.433Z,100656.46
2017-10-31T06:17:05.835Z,100657.09
2017-10-31T06:19:32.231Z,100664.74
2017-10-31T06:22:04.900Z,100664.81
2017-10-31T06:24:37.277Z,100667.11
2017-10-31T06:27:09.735Z,100660.13
2017-10-31T06:29:42.244Z,100666.12
2017-10-31T06:32:09.379Z,100677.80
2017-10-31T06:34:35.817Z,100665.49
2017-10-31T06:37:02.137Z,100678.84
2017-10-31T06:39:28.593Z,100667.39
2017-10-31T06:41:55.663Z,100674.59
2017-10-31T06:44:22.733Z,100678.30
2017-10-31T06:46:49.016Z,100673.92
2017-10-31T06:49:23.127Z,100677.58
2017-10-31T06:51:50.237Z,100674.80
2017-10-31T06:54:16.592Z,100687.36
2017-10-31T06:56:42.951Z,100690.67
2017-10-31T06:59:10.000Z,100686.05
2017-10-31T07:01:37.124Z,100688.34
2017-10-31T07:04:03.497Z,100687.89
2017-10-31T07:06:29.847Z,100699.00
2017-10-31T07:08:56.213Z,100690.31
2017-10-31T07:11:22.550Z,100688.00
2017-10-31T07:13:48.901Z,100689.56
2017-10-31T07:16:16.286Z,100696.11
2017-10-31T07:18:42.681Z,100703.38
2017-10-31T07:21:09.070Z,100697.87
2017-10-31T07:23:35.386Z,100697.73
2017-10-31T07:26:01.782Z,100691.55
2017-10-31T07:28:28.871Z,100699.05
2017-10-31T07:30:55.164Z,100696.72
2017-10-31T07:33:22.237Z,100705.28
2017-10-31T07:35:48.605Z,100700.91
2017-10-31T07:38:15.075Z,100697.93
2017-10-31T07:40:41.761Z,100713.19
2017-10-31T07:43:08.210Z,100698.34
2017-10-31T07:45:34.581Z,100705.66
2017-10-31T07:48:01.687Z,100712.78
2017-10-31T07:50:28.063Z,100705.56
2017-10-31T07:52:55.128Z,100711.56
2017-10-31T07:55:22.176Z,100708.27
2017-10-31T07:57:49.298Z,100709.41
2017-10-31T08:00:15.704Z,100709.47
2017-10-31T08:02:42.094Z,100704.50
2017-10-31T08:05:09.277Z,100710.81
2017-10-31T08:07:35.646Z,100708.39
2017-10-31T08:10:03.574Z,100709.03
2017-10-31T08:12:29.944Z,100702.45
2017-10-31T08:14:56.237Z,100721.31
2017-10-31T08:17:22.539Z,100702.64
2017-10-31T08:19:49.628Z,100707.53
2017-10-31T08:22:16.023Z,100711.23
2017-10-31T08:24:43.293Z,100722.41
2017-10-31T08:27:09.625Z,100721.53
2017-10-31T08:29:36.029Z,100731.45
2017-10-31T08:32:03.189Z,100718.40
2017-10-31T08:34:30.314Z,100720.62
2017-10-31T08:36:56.664Z,100721.28
2017-10-31T08:39:23.784Z,100717.92
2017-10-31T08:41:50.935Z,100732.65
2017-10-31T08:44:17.292Z,100728.16
2017-10-31T08:46:44.520Z,100740.55
2017-10-31T08:49:11.878Z,100729.22
2017-10-31T08:51:38.369Z,100720.57
2017-10-31T08:54:04.838Z,100720.58
2017-10-31T08:56:31.205Z,100724.07
2017-10-31T08:58:57.653Z,100730.50
2017-10-31T09:01:23.989Z,100739.95
2017-10-31T09:03:50.310Z,100743.39
2017-10-31T09:06:16.807Z,100745.58
2017-10-31T09:08:43.359Z,100740.53
2017-10-31T09:11:10.485Z,100742.25
2017-10-31T09:13:36.832Z,100727.27
2017-10-31T09:16:03.238Z,100739.44
2017-10-31T09:18:29.715Z,100734.53
2017-10-31T09:20:56.771Z,100742.27
2017-10-31T09:23:23.820Z,100741.71
2017-10-31T09:25:50.898Z,100737.83
2017-10-31T09:28:17.234Z,100737.84
2017-10-31T09:30:43.520Z,100727.00
2017-10-31T09:33:10.659Z,100734.89
2017-10-31T09:35:37.188Z,100740.39
2017-10-31T09:38:04.277Z,100751.44
2017-10-31T09:40:30.642Z,100752.71
2017-10-31T09:42:57.224Z,100747.16
2017-10-31T09:45:24.326Z,100749.03
2017-10-31T09:47:50.756Z,100746.28
2017-10-31T09:50:18.057Z,100745.28
2017-10-31T09:52:44.532Z,100746.27
2017-10-31T09:55:10.865Z,100747.21
2017-10-31T09:57:37.252Z,100736.68
2017-10-31T10:00:03.607Z,100738.11
2017-10-31T10:02:30.796Z,100754.34
2017-10-31T10:04:57.157Z,100741.42
2017-10-31T10:07:23.452Z,100736.03
2017-10-31T10:09:49.767Z,100735.28
2017-10-31T10:12:16.363Z,100726.00
2017-10-31T10:14:42.812Z,100724.44
2017-10-31T10:17:09.137Z,100715.73
2017-10-31T10:19:36.207Z,100723.97
2017-10-31T10:22:02.555Z,100726.75
2017-10-31T10:24:28.898Z,100713.62
2017-10-31T10:26:55.269Z,100714.38
2017-10-31T10:29:21.609Z,100716.20
2017-10-31T10:31:48.668Z,100717.00
2017-10-31T10:34:15.112Z,100722.45
2017-10-31T10:36:41.482Z,100716.16
2017-10-31T10:39:07.823Z,100719.86
2017-10-31T10:41:34.180Z,100710.73
2017-10-31T10:44:00.548Z,100710.07
2017-10-31T10:46:27.075Z,100705.30
2017-10-31T10:48:54.200Z,100712.14
2017-10-31T10:51:21.351Z,100709.52
2017-10-31T10:53:48.737Z,100712.56
2017-10-31T10:56:15.127Z,100722.84
2017-10-31T10:58:41.592Z,100710.38
2017-10-31T11:01:08.685Z,100703.44
2017-10-31T11:03:35.055Z,100708.42
2017-10-31T11:06:02.130Z,100706.45
2017-10-31T11:08:28.522Z,100703.80
2017-10-31T11:10:55.127Z,100708.09
2017-10-31T11:13:21.410Z,100709.19
2017-10-31T11:15:48.498Z,100702.47
2017-10-31T11:18:14.787Z,100701.14
2017-10-31T11:20:41.283Z,100713.36
2017-10-31T11:23:07.676Z,100706.96
2017-10-31T11:25:34.900Z,100707.00
2017-10-31T11:28:01.304Z,100695.66
2017-10-31T11:30:27.810Z,100697.23
2017-10-31T11:32:54.190Z,100698.22
2017-10-31T11:35:20.731Z,100686.89
2017-10-31T11:37:47.226Z,100703.28
2017-10-31T11:40:13.697Z,100699.69
2017-10-31T11:42:40.095Z,100707.45
2017-10-31T11:45:06.519Z,100702.64
2017-10-31T11:47:32.857Z,100689.94
2017-10-31T11:49:59.170Z,100707.59
2017-10-31T11:52:25.484Z,100705.26
2017-10-31T11:54:51.801Z,100707.66
2017-10-31T11:57:18.165Z,100703.34
2017-10-31T11:59:44.589Z,100704.58
2017-10-31T12:02:11.782Z,100712.98
2017-10-31T12:04:38.135Z,100702.41
2017-10-31T12:07:04.497Z,100707.38
2017-10-31T12:09:31.679Z,100703.03
2017-10-31T12:11:58.138Z,100699.16
2017-10-31T12:14:24.549Z,100698.48
2017-10-31T12:16:50.875Z,100706.30
2017-10-31T12:19:17.296Z,100706.98
2017-10-31T12:21:43.713Z,100706.03
2017-10-31T12:24:10.939Z,100700.92
2017-10-31T12:26:37.372Z,100707.36
2017-10-31T12:29:03.732Z,100683.65
2017-10-31T12:31:30.861Z,100699.13
2017-10-31T12:33:57.197Z,100700.14
2017-10-31T12:36:23.591Z,100702.59
2017-10-31T12:38:50.301Z,100699.41
2017-10-31T12:41:16.742Z,100697.05
2017-10-31T12:43:43.270Z,100691.72
2017-10-31T12:46:09.767Z,100673.02
2017-10-31T12:48:36.158Z,100692.66
2017-10-31T12:51:02.630Z,100683.69
2017-10-31T12:53:29.085Z,100679.16
2017-10-31T12:55:56.259Z,100693.11
2017-10-31T12:58:22.693Z,100675.32
2017-10-31T13:00:49.127Z,100683.36
2017-10-31T13:03:15.521Z,100689.17
2017-10-31T13:05:42.006Z,100681.70
2017-10-31T13:08:08.319Z,100676.31
2017-10-31T13:10:34.752Z,100677.48
2017-10-31T13:13:01.213Z,100677.81
2017-10-31T13:15:27.721Z,100653.52
2017-10-31T13:18:09.138Z,100677.25
2017-10-31T13:20:35.554Z,100674.38
2017-10-31T13:23:01.900Z,100672.24
2017-10-31T13:25:28.191Z,100673.12
2017-10-31T13:27:55.412Z,100672.56
2017-10-31T13:30:23.267Z,100667.87
2017-10-31T13:32:50.509Z,100665.72
2017-10-31T13:35:17.723Z,100672.98
2017-10-31T13:37:44.901Z,100661.13
2017-10-31T13:40:12.962Z,100650.63
2017-10-31T13:42:41.182Z,100659.42
2017-10-31T13:45:07.744Z,100659.62
2017-10-31T13:47:35.705Z,100652.11
2017-10-31T13:50:02.865Z,100654.91
2017-10-31T13:52:30.589Z,100648.69
2017-10-31T13:54:56.909Z,100651.94
2017-10-31T13:57:23.226Z,100649.05
2017-10-31T13:59:49.532Z,100645.34
2017-10-31T14:02:16.660Z,100654.19
2017-10-31T14:04:51.405Z,100651.55
2017-10-31T14:07:19.159Z,100652.72
2017-10-31T14:09:47.030Z,100648.92
2017-10-31T14:12:15.104Z,100653.60
2017-10-31T14:14:43.110Z,100647.16
2017-10-31T14:17:09.482Z,100643.91
2017-10-31T14:19:36.572Z,100647.50
2017-10-31T14:22:03.827Z,100649.56
2017-10-31T14:24:30.184Z,100645.38
2017-10-31T14:26:56.520Z,100644.97
2017-10-31T14:29:22.900Z,100638.70
2017-10-31T14:31:50.073Z,100633.86
2017-10-31T14:34:16.433Z,100641.52
2017-10-31T14:36:42.789Z,100639.09
2017-10-31T14:39:09.259Z,100631.53
2017-10-31T14:41:36.322Z,100626.54
2017-10-31T14:44:02.685Z,100629.88
2017-10-31T14:46:28.974Z,100624.77
2017-10-31T14:48:55.301Z,100626.00
2017-10-31T14:51:22.333Z,100632.63
2017-10-31T14:53:48.650Z,100625.27
2017-10-31T14:56:14.984Z,100630.22
2017-10-31T14:58:41.480Z,100630.00
2017-10-31T15:01:07.801Z,100631.27
2017-10-31T15:03:34.090Z,100630.55
2017-10-31T15:06:01.244Z,100616.83
2017-10-31T15:08:28.429Z,100623.72
2017-10-31T15:13:21.236Z,100620.44
2017-10-31T15:15:47.592Z,100613.27
2017-10-31T15:18:14.054Z,100622.45
2017-10-31T15:20:40.470Z,100617.53
2017-10-31T15:23:07.553Z,100615.61
2017-10-31T15:25:33.833Z,100618.16
2017-10-31T15:28:00.217Z,100613.78
2017-10-31T15:30:26.567Z,100607.22
2017-10-31T15:32:52.970Z,100618.56
2017-10-31T15:35:19.307Z,100619.57
2017-10-31T15:37:45.627Z,100609.53
2017-10-31T15:40:11.959Z,100614.86
2017-10-31T15:42:38.356Z,100622.68
2017-10-31T15:45:05.521Z,100617.73
2017-10-31T15:47:31.910Z,100617.43
2017-10-31T15:49:58.250Z,100607.08
2017-10-31T15:52:24.691Z,100628.13
2017-10-31T15:54:51.049Z,100630.90
2017-10-31T15:57:17.482Z,100635.19
2017-10-31T15:59:44.636Z,100635.84
2017-10-31T16:02:11.778Z,100634.30
2017-10-31T16:04:38.982Z,100640.86
2017-10-31T16:07:05.362Z,100633.98
2017-10-31T16:09:32.607Z,100643.86
2017-10-31T16:11:59.038Z,100640.53
2017-10-31T16:14:25.418Z,100643.14
2017-10-31T16:16:51.754Z,100648.66
2017-10-31T16:19:18.238Z,100650.63
2017-10-31T16:21:44.659Z,100650.38
2017-10-31T16:24:11.467Z,100654.98
2017-10-31T16:26:37.995Z,100652.09
2017-10-31T16:29:04.480Z,100657.47
2017-10-31T16:31:31.153Z,100663.35
2017-10-31T16:33:57.607Z,100661.99
2017-10-31T16:36:24.079Z,100670.56
2017-10-31T16:38:50.417Z,100666.19
2017-10-31T16:41:16.795Z,100671.36
2017-10-31T16:43:43.227Z,100672.40
2017-10-31T16:46:09.618Z,100662.47
2017-10-31T16:48:36.370Z,100669.52
2017-10-31T16:51:02.908Z,100674.94
2017-10-31T16:53:30.064Z,100672.86
2017-10-31T16:55:57.200Z,100674.55
2017-10-31T16:58:24.298Z,100675.45
2017-10-31T17:00:50.750Z,100679.02
2017-10-31T17:03:17.105Z,100672.30
2017-10-31T17:05:43.566Z,100684.19
2017-10-31T17:08:10.764Z,100684.98
2017-10-31T17:10:37.180Z,100686.67
2017-10-31T17:13:03.607Z,100687.23
2017-10-31T17:15:30.063Z,100691.59
2017-10-31T17:17:56.483Z,100693.32
2017-10-31T17:20:22.793Z,100699.74
2017-10-31T17:22:49.238Z,100689.97
2017-10-31T17:25:15.617Z,100690.86
2017-10-31T17:27:42.842Z,100699.59
2017-10-31T17:30:09.284Z,100701.40
2017-10-31T17:32:35.724Z,100691.71
2017-10-31T17:35:02.232Z,100695.45
2017-10-31T17:37:28.654Z,100700.47
2017-10-31T17:39:55.029Z,100696.23
2017-10-31T17:42:21.463Z,100702.63
2017-10-31T17:44:47.874Z,100690.89
2017-10-31T17:47:14.210Z,100684.92
2017-10-31T17:49:40.660Z,100695.58
2017-10-31T17:52:07.134Z,100697.55
2017-10-31T17:54:34.354Z,100690.34
2017-10-31T17:57:00.702Z,100691.75
2017-10-31T17:59:27.250Z,100690.77
2017-10-31T18:01:54.494Z,100690.38
2017-10-31T18:04:20.860Z,100686.44
2017-10-31T18:06:47.265Z,100686.93
2017-10-31T18:09:13.633Z,100686.94
2017-10-31T18:11:40.051Z,100686.92
2017-10-31T18:14:08.161Z,100685.16
2017-10-31T18:16:34.499Z,100677.11
2017-10-31T18:19:00.906Z,100676.48
2017-10-31T18:21:27.261Z,100672.09
2017-10-31T18:23:53.621Z,100673.48
2017-10-31T18:26:19.998Z,100674.52
2017-10-31T18:28:46.440Z,100674.11
2017-10-31T18:31:12.839Z,100673.45
2017-10-31T18:33:40.069Z,100669.25
2017-10-31T18:36:06.479Z,100665.80
2017-10-31T18:38:32.890Z,100666.26
2017-10-31T18:40:59.334Z,100671.65
2017-10-31T18:43:25.779Z,100663.23
2017-10-31T18:45:52.308Z,100665.77
2017-10-31T18:48:18.716Z,100661.80
2017-10-31T18:50:45.258Z,100664.73
2017-10-31T18:53:11.738Z,100668.30
2017-10-31T18:55:38.214Z,100661.96
2017-10-31T18:58:04.576Z,100650.23
2017-10-31T19:00:30.959Z,100649.41
2017-10-31T19:02:58.233Z,100646.80
2017-10-31T19:05:24.766Z,100650.34
2017-10-31T19:07:51.854Z,100654.61
2017-10-31T19:10:18.329Z,100650.03
2017-10-31T19:12:45.509Z,100639.45
2017-10-31T19:15:11.887Z,100644.33
2017-10-31T19:17:38.423Z,100643.05
2017-10-31T19:20:04.744Z,100644.45
2017-10-31T19:22:31.394Z,100642.84
2017-10-31T19:24:57.785Z,100646.83
2017-10-31T19:27:24.114Z,100646.14
2017-10-31T19:29:50.727Z,100642.34
2017-10-31T19:32:17.112Z,100642.44
2017-10-31T19:34:43.545Z,100640.02
2017-10-31T19:37:10.918Z,100642.71
2017-10-31T19:39:37.244Z,100645.41
2017-10-31T19:42:03.631Z,100642.95
2017-10-31T19:44:29.964Z,100640.72
2017-10-31T19:46:56.619Z,100640.58
2017-10-31T19:49:23.668Z,100651.09
2017-10-31T19:51:49.989Z,100639.95
2017-10-31T19:54:16.342Z,100640.48
2017-10-31T19:56:42.639Z,100648.83
2017-10-31T19:59:10.079Z,100646.83
2017-10-31T20:01:38.118Z,100653.98
2017-10-31T20:04:04.661Z,100649.25
2017-10-31T20:06:32.565Z,100640.52
2017-10-31T20:08:59.839Z,100638.97
2017-10-31T20:11:26.262Z,100653.70
2017-10-31T20:13:54.338Z,100642.52
2017-10-31T20:16:20.782Z,100641.41
2017-10-31T20:18:47.241Z,100646.19
2017-10-31T20:21:13.709Z,100640.26
2017-10-31T20:23:40.211Z,100642.19
2017-10-31T20:26:06.679Z,100639.74
2017-10-31T20:28:33.149Z,100643.13
2017-10-31T20:30:59.885Z,100637.44
2017-10-31T20:33:26.893Z,100634.36
2017-10-31T20:35:53.277Z,100637.84
2017-10-31T20:38:19.615Z,100639.58
2017-10-31T20:40:45.974Z,100635.52
2017-10-31T20:43:12.293Z,100637.77
2017-10-31T20:45:38.763Z,100632.67
2017-10-31T20:48:05.954Z,100633.64
2017-10-31T20:50:32.276Z,100626.91
2017-10-31T20:52:58.675Z,100623.52
2017-10-31T20:55:25.866Z,100624.30
2017-10-31T20:57:52.256Z,100625.46
2017-10-31T21:00:18.613Z,100614.22
2017-10-31T21:02:45.674Z,100614.30
2017-10-31T21:05:14.019Z,100616.52
2017-10-31T21:07:41.128Z,100607.30
2017-10-31T21:10:07.515Z,100609.65
2017-10-31T21:12:34.621Z,100607.84
2017-10-31T21:15:01.085Z,100610.69
2017-10-31T21:17:28.249Z,100598.59
2017-10-31T21:19:55.513Z,100596.73
2017-10-31T21:22:22.695Z,100585.81
2017-10-31T21:24:49.065Z,100586.31
2017-10-31T21:27:15.459Z,100574.69
2017-10-31T21:29:41.895Z,100582.94
2017-10-31T21:32:08.371Z,100583.63
2017-10-31T21:34:35.051Z,100578.51
2017-10-31T21:37:01.492Z,100587.23
2017-10-31T21:39:27.910Z,100582.73
2017-10-31T21:41:54.259Z,100581.52
2017-10-31T21:44:20.568Z,100576.02
2017-10-31T21:46:46.964Z,100582.80
2017-10-31T21:49:13.312Z,100582.64
2017-10-31T21:51:40.550Z,100577.79
2017-10-31T21:54:06.910Z,100574.79
2017-10-31T21:56:33.962Z,100573.52
2017-10-31T21:59:01.184Z,100575.35
2017-10-31T22:01:27.618Z,100573.50
2017-10-31T22:03:55.037Z,100571.81
2017-10-31T22:06:21.423Z,100574.56
2017-10-31T22:08:48.549Z,100581.78
2017-10-31T22:11:14.898Z,100573.80
2017-10-31T22:13:42.037Z,100570.00
2017-10-31T22:16:08.395Z,100566.88
2017-10-31T22:18:35.487Z,100570.44
2017-10-31T22:21:01.863Z,100562.49
2017-10-31T22:23:29.025Z,100562.87
2017-10-31T22:25:56.192Z,100566.42
2017-10-31T22:28:22.599Z,100555.27
2017-10-31T22:30:49.646Z,100566.16
2017-10-31T22:33:16.066Z,100554.30
2017-10-31T22:35:42.431Z,100553.49
2017-10-31T22:38:10.979Z,100555.69
2017-10-31T22:40:37.304Z,100548.63
2017-10-31T22:43:03.749Z,100553.27
2017-10-31T22:45:30.905Z,100551.42
2017-10-31T22:47:57.299Z,100554.34
2017-10-31T22:50:23.663Z,100550.72
2017-10-31T22:52:50.759Z,100548.28
2017-10-31T22:55:17.189Z,100541.78
2017-10-31T22:57:43.494Z,100543.05
2017-10-31T23:00:10.565Z,100539.92
2017-10-31T23:02:36.976Z,100544.40
2017-10-31T23:05:04.197Z,100541.02
2017-10-31T23:07:31.348Z,100541.95
2017-10-31T23:09:57.678Z,100535.43
2017-10-31T23:12:24.101Z,100539.20
2017-10-31T23:14:50.504Z,100534.67
2017-10-31T23:17:16.907Z,100531.59
2017-10-31T23:19:52.211Z,100529.63
2017-10-31T23:22:18.634Z,100527.02
2017-10-31T23:24:44.972Z,100524.01
2017-10-31T23:27:11.286Z,100516.41
2017-10-31T23:29:37.568Z,100517.25
2017-10-31T23:32:03.894Z,100513.88
2017-10-31T23:34:30.244Z,100511.64
2017-10-31T23:36:56.666Z,100511.85
2017-10-31T23:39:23.759Z,100509.95
2017-10-31T23:41:50.074Z,100506.06
2017-10-31T23:44:16.398Z,100510.79
2017-10-31T23:46:42.732Z,100510.83
2017-10-31T23:49:09.148Z,100514.17
2017-10-31T23:51:36.191Z,100505.39
2017-10-31T23:54:03.257Z,100498.39
2017-10-31T23:56:29.607Z,100497.84
2017-10-31T23:58:55.904Z,100497.42
